Time;durP1;ratioP1;P1;durP2;ratioP2;P2;SDS_P1;SDS_P2;PMS_P1;PMS_P2;Temp;Humidity;BMP_temperature;BMP_pressure;BME280_temperature;BME280_humidity;BME280_pressure;Samples;Min_cycle;Max_cycle;Signal;HPM_P1;HPM_P2
2021/06/26 00:00:51;;;;;;;7.72;5.88;;;18.90;99.90;;;;;;5053191;28;20389;-85
2021/06/26 00:03:22;;;;;;;13.30;6.97;;;18.90;99.90;;;;;;5051725;28;20042;-85
2021/06/26 00:05:48;;;;;;;12.07;6.63;;;18.90;99.90;;;;;;5059717;28;20396;-85
2021/06/26 00:08:14;;;;;;;9.45;6.25;;;18.90;99.90;;;;;;5069908;28;20017;-85
2021/06/26 00:10:42;;;;;;;8.25;5.88;;;18.90;99.90;;;;;;5060597;28;20166;-88
2021/06/26 00:13:08;;;;;;;9.82;6.22;;;18.90;99.90;;;;;;5068787;28;20020;-85
2021/06/26 00:15:34;;;;;;;10.07;6.28;;;18.80;99.90;;;;;;5062205;28;20036;-85
2021/06/26 00:17:59;;;;;;;10.70;5.43;;;18.90;99.90;;;;;;5070034;28;20493;-85
2021/06/26 00:20:25;;;;;;;6.43;5.45;;;18.90;99.90;;;;;;5045956;28;20087;-85
2021/06/26 00:22:51;;;;;;;7.85;5.47;;;18.90;99.90;;;;;;5049493;28;20028;-85
2021/06/26 00:25:17;;;;;;;9.43;5.65;;;18.80;99.90;;;;;;5034387;28;20025;-86
2021/06/26 00:27:43;;;;;;;10.32;5.68;;;18.80;99.90;;;;;;5065232;28;20055;-85
2021/06/26 00:30:09;;;;;;;8.18;5.32;;;18.80;99.90;;;;;;5067568;28;20029;-85
2021/06/26 00:32:35;;;;;;;6.57;5.10;;;18.80;99.90;;;;;;5064614;28;20396;-85
2021/06/26 00:35:01;;;;;;;8.45;4.95;;;18.80;99.90;;;;;;5055827;28;20080;-85
2021/06/26 00:37:26;;;;;;;8.70;5.80;;;18.80;99.90;;;;;;5066314;28;20119;-85
2021/06/26 00:39:52;;;;;;;6.53;4.47;;;18.70;99.90;;;;;;5057105;28;20048;-85
2021/06/26 00:42:18;;;;;;;10.23;5.80;;;18.80;99.90;;;;;;5045979;28;20029;-85
2021/06/26 00:44:43;;;;;;;9.02;5.32;;;18.70;99.90;;;;;;5059427;28;20036;-85
2021/06/26 00:47:12;;;;;;;6.43;4.80;;;18.70;99.90;;;;;;5069110;28;20440;-85
2021/06/26 00:49:40;;;;;;;7.53;5.13;;;18.70;99.90;;;;;;5060684;28;20638;-85
2021/06/26 00:52:06;;;;;;;8.13;4.55;;;18.60;99.90;;;;;;5059938;28;20489;-85
2021/06/26 00:54:32;;;;;;;9.05;4.93;;;18.60;99.90;;;;;;5057157;28;20100;-85
2021/06/26 00:56:59;;;;;;;8.35;5.03;;;18.60;99.90;;;;;;5066129;28;20029;-85
2021/06/26 00:59:25;;;;;;;9.65;5.65;;;18.60;99.90;;;;;;5046671;28;20028;-85
2021/06/26 01:01:50;;;;;;;10.27;5.22;;;18.60;99.90;;;;;;5060613;28;20393;-85
2021/06/26 01:04:16;;;;;;;8.60;4.93;;;18.60;99.90;;;;;;5067167;28;20112;-85
2021/06/26 01:06:42;;;;;;;8.13;5.03;;;18.50;99.90;;;;;;5059122;28;20025;-85
2021/06/26 01:09:07;;;;;;;6.40;4.95;;;18.50;99.90;;;;;;5050973;28;20525;-85
2021/06/26 01:11:34;;;;;;;8.82;5.38;;;18.50;99.90;;;;;;5057483;28;20395;-85
2021/06/26 01:14:00;;;;;;;8.32;5.05;;;18.50;99.90;;;;;;5059368;28;20021;-85
2021/06/26 01:16:26;;;;;;;7.97;5.38;;;18.50;99.90;;;;;;5059773;28;20073;-85
2021/06/26 01:18:52;;;;;;;8.73;5.25;;;18.50;99.90;;;;;;5044702;28;20494;-85
2021/06/26 01:21:18;;;;;;;8.88;5.10;;;18.40;99.90;;;;;;5037565;28;20396;-85
2021/06/26 01:23:50;;;;;;;8.95;5.57;;;18.40;99.90;;;;;;5061233;28;20020;-85
2021/06/26 01:26:16;;;;;;;7.82;5.38;;;18.40;99.90;;;;;;5055544;28;20020;-85
2021/06/26 01:28:42;;;;;;;7.45;5.05;;;18.40;99.90;;;;;;5062964;28;20017;-85
2021/06/26 01:31:08;;;;;;;6.38;4.90;;;18.50;99.90;;;;;;5054684;28;20070;-85
2021/06/26 01:33:34;;;;;;;8.70;5.28;;;18.40;99.90;;;;;;5065540;28;20025;-85
2021/06/26 01:36:00;;;;;;;7.03;4.93;;;18.50;99.90;;;;;;5054933;28;20570;-85
2021/06/26 01:38:26;;;;;;;8.32;4.97;;;18.40;99.90;;;;;;5068535;28;20032;-85
2021/06/26 01:40:52;;;;;;;9.13;4.97;;;18.40;99.90;;;;;;5039615;28;20481;-85
2021/06/26 01:43:18;;;;;;;7.70;5.35;;;18.40;99.90;;;;;;5043896;28;20078;-85
2021/06/26 01:45:43;;;;;;;9.30;5.43;;;18.40;99.90;;;;;;5055802;28;20523;-85
2021/06/26 01:48:09;;;;;;;7.40;5.15;;;18.40;99.90;;;;;;5063851;28;20017;-85
2021/06/26 01:50:35;;;;;;;7.60;5.30;;;18.40;99.90;;;;;;5060267;28;20521;-86
2021/06/26 01:53:00;;;;;;;6.60;5.05;;;18.40;99.90;;;;;;5048526;28;20027;-85
2021/06/26 01:55:27;;;;;;;5.93;4.78;;;18.30;99.90;;;;;;5050553;28;20025;-85
2021/06/26 01:57:53;;;;;;;8.63;4.65;;;18.30;99.90;;;;;;5062217;28;20036;-85
2021/06/26 02:00:22;;;;;;;7.47;5.15;;;18.30;99.90;;;;;;5051723;28;20252;-85
2021/06/26 02:02:48;;;;;;;9.30;5.82;;;18.30;99.90;;;;;;5068321;28;20274;-85
2021/06/26 02:05:17;;;;;;;6.03;4.82;;;18.30;99.90;;;;;;5063851;28;20096;-85
2021/06/26 02:07:46;;;;;;;11.15;5.28;;;18.30;99.90;;;;;;5066436;28;20016;-85
2021/06/26 02:10:13;;;;;;;7.13;5.10;;;18.30;99.90;;;;;;5056444;28;20134;-85
2021/06/26 02:12:39;;;;;;;6.82;5.15;;;18.30;99.90;;;;;;5047655;28;20021;-85
2021/06/26 02:15:06;;;;;;;7.82;5.45;;;18.20;99.90;;;;;;5055911;28;20086;-85
2021/06/26 02:17:31;;;;;;;11.02;5.25;;;18.30;99.90;;;;;;5051186;28;20017;-85
2021/06/26 02:19:57;;;;;;;6.32;5.05;;;18.20;99.90;;;;;;5062365;28;20024;-85
2021/06/26 02:22:23;;;;;;;6.18;4.65;;;18.20;99.90;;;;;;5042128;28;20021;-85
2021/06/26 02:24:48;;;;;;;7.75;5.20;;;18.20;99.90;;;;;;5062677;28;20029;-85
2021/06/26 02:27:14;;;;;;;6.88;4.30;;;18.20;99.90;;;;;;5061574;28;20342;-85
2021/06/26 02:29:40;;;;;;;6.43;4.20;;;18.20;99.90;;;;;;5049883;28;20188;-85
2021/06/26 02:32:06;;;;;;;8.13;4.55;;;18.20;99.90;;;;;;5060999;28;20027;-85
2021/06/26 02:34:32;;;;;;;5.13;4.32;;;18.20;99.90;;;;;;5038265;28;20508;-85
2021/06/26 02:36:58;;;;;;;6.78;3.63;;;18.20;99.90;;;;;;5050657;28;20025;-85
2021/06/26 02:39:24;;;;;;;7.63;3.58;;;18.10;99.90;;;;;;5051496;28;20074;-85
2021/06/26 02:41:49;;;;;;;3.97;3.20;;;18.00;99.90;;;;;;5066181;28;20576;-85
2021/06/26 02:44:15;;;;;;;5.00;3.20;;;17.90;99.90;;;;;;5060066;28;20086;-85
2021/06/26 02:46:41;;;;;;;4.07;2.88;;;17.90;99.90;;;;;;5055872;28;20023;-85
2021/06/26 02:49:07;;;;;;;4.45;3.00;;;17.90;99.90;;;;;;5061321;28;20140;-85
2021/06/26 02:51:32;;;;;;;6.57;3.17;;;18.00;99.90;;;;;;5056556;28;20024;-85
2021/06/26 02:53:58;;;;;;;3.83;2.78;;;18.10;99.90;;;;;;5062513;28;20083;-85
2021/06/26 02:56:24;;;;;;;4.75;2.95;;;18.10;99.90;;;;;;5042487;28;20021;-85
2021/06/26 02:58:50;;;;;;;3.17;2.45;;;18.10;99.90;;;;;;5065369;28;20017;-85
2021/06/26 03:01:16;;;;;;;4.75;2.88;;;18.00;99.90;;;;;;5054269;28;20027;-85
2021/06/26 03:03:41;;;;;;;5.15;2.45;;;18.00;99.90;;;;;;5059121;28;20684;-85
2021/06/26 03:06:07;;;;;;;5.45;2.70;;;18.00;99.90;;;;;;5056795;28;20024;-85
2021/06/26 03:08:33;;;;;;;4.70;2.83;;;18.00;99.90;;;;;;5061910;28;20023;-85
2021/06/26 03:10:58;;;;;;;5.60;2.80;;;18.00;99.90;;;;;;5048669;28;20102;-84
2021/06/26 03:13:24;;;;;;;5.70;2.75;;;18.00;99.90;;;;;;5067146;28;20369;-85
2021/06/26 03:15:50;;;;;;;5.13;2.90;;;18.00;99.90;;;;;;5058702;28;20058;-85
2021/06/26 03:18:16;;;;;;;4.72;3.10;;;18.00;99.90;;;;;;5070893;28;20442;-85
2021/06/26 03:20:42;;;;;;;5.53;3.10;;;18.00;99.90;;;;;;5061300;28;20035;-85
2021/06/26 03:23:08;;;;;;;6.15;3.40;;;17.90;99.90;;;;;;5068870;28;20017;-85
2021/06/26 03:25:34;;;;;;;6.35;3.60;;;17.90;99.90;;;;;;5035188;28;20497;-86
2021/06/26 03:27:59;;;;;;;4.82;4.05;;;17.90;99.90;;;;;;5059195;28;20021;-88
2021/06/26 03:30:25;;;;;;;7.30;4.00;;;17.90;99.90;;;;;;5055537;28;20036;-85
2021/06/26 03:32:51;;;;;;;5.40;3.53;;;17.90;99.90;;;;;;5065863;28;20423;-88
2021/06/26 03:35:16;;;;;;;7.65;4.28;;;17.80;99.90;;;;;;5066679;28;20059;-85
2021/06/26 03:37:43;;;;;;;5.90;3.83;;;17.80;99.90;;;;;;5057441;28;20101;-85
2021/06/26 03:40:09;;;;;;;5.47;3.50;;;17.80;99.90;;;;;;5055049;28;20051;-85
2021/06/26 03:42:35;;;;;;;5.70;3.60;;;17.80;99.90;;;;;;5057484;28;20024;-84
2021/06/26 03:45:01;;;;;;;8.13;3.35;;;17.80;99.90;;;;;;5053049;28;20028;-87
2021/06/26 03:47:28;;;;;;;3.25;2.88;;;17.80;99.90;;;;;;5065282;28;20187;-85
2021/06/26 03:49:54;;;;;;;3.95;2.70;;;17.70;99.90;;;;;;5060764;28;20103;-84
2021/06/26 03:52:20;;;;;;;3.45;2.67;;;17.60;99.90;;;;;;5053942;28;20390;-84
2021/06/26 03:54:45;;;;;;;4.72;2.15;;;17.60;99.90;;;;;;5060769;28;20029;-85
2021/06/26 03:57:11;;;;;;;4.53;2.42;;;17.60;99.90;;;;;;5063828;28;20013;-85
2021/06/26 03:59:37;;;;;;;3.45;2.30;;;17.60;99.90;;;;;;5054705;28;20032;-85
2021/06/26 04:02:06;;;;;;;2.97;2.20;;;17.70;99.90;;;;;;5048921;28;20028;-85
2021/06/26 04:04:36;;;;;;;4.55;2.20;;;17.70;99.90;;;;;;5058254;28;20017;-85
2021/06/26 04:07:03;;;;;;;4.13;1.90;;;17.70;99.90;;;;;;5062944;28;20512;-84
2021/06/26 04:09:29;;;;;;;3.20;2.00;;;17.70;99.90;;;;;;5062023;28;20033;-85
2021/06/26 04:11:55;;;;;;;3.25;1.90;;;17.70;99.90;;;;;;5064265;28;20032;-84
2021/06/26 04:14:21;;;;;;;4.60;1.67;;;17.70;99.90;;;;;;5045247;28;20080;-85
2021/06/26 04:16:46;;;;;;;2.90;1.77;;;17.70;99.90;;;;;;5068473;28;20067;-85
2021/06/26 04:19:15;;;;;;;2.88;1.60;;;17.70;99.90;;;;;;5072460;28;20044;-85
2021/06/26 04:21:42;;;;;;;3.08;1.90;;;17.70;99.90;;;;;;5057382;28;20025;-85
2021/06/26 04:24:08;;;;;;;3.08;1.60;;;17.70;99.90;;;;;;5070902;28;20542;-84
2021/06/26 04:26:34;;;;;;;4.57;1.60;;;17.70;99.90;;;;;;5059345;28;20572;-84
2021/06/26 04:29:00;;;;;;;4.70;1.42;;;17.70;99.90;;;;;;5053741;28;20116;-85
2021/06/26 04:31:25;;;;;;;3.92;1.48;;;17.70;99.90;;;;;;5061108;28;20420;-85
2021/06/26 04:33:51;;;;;;;2.63;1.67;;;17.60;99.90;;;;;;5064112;28;20524;-85
2021/06/26 04:36:18;;;;;;;3.47;1.25;;;17.60;99.90;;;;;;5065590;28;20035;-85
2021/06/26 04:38:43;;;;;;;3.47;1.63;;;17.70;99.90;;;;;;5059162;28;20021;-85
2021/06/26 04:41:09;;;;;;;2.65;1.55;;;17.60;99.90;;;;;;5055189;28;20087;-85
2021/06/26 04:43:36;;;;;;;3.50;1.38;;;17.60;99.90;;;;;;5067606;28;20056;-85
2021/06/26 04:46:02;;;;;;;2.92;1.33;;;17.60;99.90;;;;;;5057368;28;20029;-85
2021/06/26 04:48:29;;;;;;;2.15;1.73;;;17.60;99.90;;;;;;5052352;28;20024;-85
2021/06/26 04:50:55;;;;;;;4.60;1.95;;;17.50;99.90;;;;;;5058379;28;20520;-85
2021/06/26 04:53:21;;;;;;;2.17;1.90;;;17.50;99.90;;;;;;5071634;28;20020;-85
2021/06/26 04:55:53;;;;;;;3.97;2.00;;;17.50;99.90;;;;;;5066148;28;20047;-86
2021/06/26 04:58:20;;;;;;;3.03;2.05;;;17.40;99.90;;;;;;5052844;28;20021;-85
2021/06/26 05:00:46;;;;;;;5.22;1.83;;;17.50;99.90;;;;;;5049249;28;20451;-85
2021/06/26 05:03:11;;;;;;;7.50;2.28;;;17.50;99.90;;;;;;5063794;28;20024;-84
2021/06/26 05:05:37;;;;;;;6.57;2.60;;;17.50;99.90;;;;;;5057393;28;20340;-88
2021/06/26 05:08:03;;;;;;;4.22;2.60;;;17.60;99.90;;;;;;5070871;28;20216;-85
2021/06/26 05:10:28;;;;;;;6.47;3.10;;;17.60;99.90;;;;;;5038881;28;20048;-85
2021/06/26 05:12:54;;;;;;;4.93;2.78;;;17.70;99.90;;;;;;5045370;28;20176;-85
2021/06/26 05:15:20;;;;;;;7.30;2.95;;;17.70;99.90;;;;;;5041855;28;20547;-85
2021/06/26 05:17:45;;;;;;;5.35;3.45;;;17.70;99.90;;;;;;5049228;28;20021;-85
2021/06/26 05:20:14;;;;;;;4.55;2.95;;;17.70;99.90;;;;;;5061335;28;20029;-85
2021/06/26 05:22:40;;;;;;;5.00;3.20;;;17.70;99.90;;;;;;5045525;28;20393;-85
2021/06/26 05:25:07;;;;;;;4.50;3.15;;;17.80;99.90;;;;;;5064160;28;20044;-85
2021/06/26 05:27:32;;;;;;;5.07;3.00;;;17.80;99.90;;;;;;5067673;28;20727;-85
2021/06/26 05:29:58;;;;;;;5.40;3.10;;;17.90;99.90;;;;;;5069402;28;20037;-85
2021/06/26 05:32:23;;;;;;;4.10;2.67;;;17.90;99.90;;;;;;5081374;28;20032;-85
2021/06/26 05:34:49;;;;;;;4.57;3.55;;;18.00;99.90;;;;;;5080664;28;20078;-85
2021/06/26 05:37:15;;;;;;;4.50;3.20;;;18.00;99.90;;;;;;5077092;28;20052;-85
2021/06/26 05:39:41;;;;;;;4.22;2.90;;;17.90;99.90;;;;;;5068200;28;20467;-85
2021/06/26 05:42:06;;;;;;;4.03;3.30;;;17.90;99.90;;;;;;5060291;28;20523;-85
2021/06/26 05:44:32;;;;;;;5.18;2.83;;;18.00;99.90;;;;;;5052169;28;20016;-85
2021/06/26 05:46:58;;;;;;;5.97;3.42;;;18.00;99.90;;;;;;5060026;28;20028;-85
2021/06/26 05:49:24;;;;;;;5.30;3.35;;;18.00;99.90;;;;;;5070315;28;20330;-85
2021/06/26 05:51:49;;;;;;;5.43;3.20;;;18.00;99.90;;;;;;5069595;28;20024;-85
2021/06/26 05:54:15;;;;;;;5.05;3.33;;;18.00;99.90;;;;;;5080767;28;20055;-86
2021/06/26 05:56:41;;;;;;;6.10;3.30;;;18.10;99.90;;;;;;5072035;28;20038;-85
2021/06/26 05:59:06;;;;;;;8.35;3.63;;;18.20;99.90;;;;;;5074599;28;20504;-85
2021/06/26 06:01:32;;;;;;;14.27;3.78;;;18.20;99.90;;;;;;5056893;28;20016;-85
2021/06/26 06:03:58;;;;;;;11.02;3.08;;;18.30;99.90;;;;;;5048688;28;20029;-85
2021/06/26 06:06:24;;;;;;;5.05;2.90;;;18.30;99.90;;;;;;5047181;28;20027;-85
2021/06/26 06:08:50;;;;;;;5.65;2.88;;;18.20;99.90;;;;;;5052356;28;20020;-85
2021/06/26 06:11:16;;;;;;;4.68;2.80;;;18.30;99.90;;;;;;5039654;28;20389;-85
2021/06/26 06:13:41;;;;;;;7.07;2.72;;;18.50;99.90;;;;;;5065751;28;20591;-85
2021/06/26 06:16:07;;;;;;;3.75;3.00;;;18.70;99.90;;;;;;5060024;28;20051;-85
2021/06/26 06:18:33;;;;;;;5.90;2.65;;;18.80;99.90;;;;;;5051821;28;20017;-85
2021/06/26 06:20:58;;;;;;;4.03;2.60;;;18.80;99.90;;;;;;5061177;28;20417;-85
2021/06/26 06:23:24;;;;;;;5.07;2.45;;;19.00;99.90;;;;;;5070206;28;20029;-85
2021/06/26 06:25:50;;;;;;;3.55;2.50;;;19.10;99.90;;;;;;5061922;28;20542;-85
2021/06/26 06:28:16;;;;;;;5.28;2.92;;;19.20;99.90;;;;;;5069837;28;20070;-85
2021/06/26 06:30:42;;;;;;;3.67;2.47;;;19.20;99.90;;;;;;5063699;28;20068;-85
2021/06/26 06:33:07;;;;;;;4.55;2.80;;;19.20;99.90;;;;;;5069131;28;20263;-85
2021/06/26 06:35:33;;;;;;;3.95;2.40;;;19.20;99.90;;;;;;5033514;28;20456;-85
2021/06/26 06:37:59;;;;;;;3.58;2.70;;;19.20;99.90;;;;;;5067410;28;20021;-85
2021/06/26 06:40:25;;;;;;;3.65;2.72;;;19.20;99.90;;;;;;5067509;28;20033;-85
2021/06/26 06:42:51;;;;;;;5.85;3.05;;;19.30;99.90;;;;;;5058289;28;20020;-85
2021/06/26 06:45:17;;;;;;;3.10;2.33;;;19.30;99.90;;;;;;5055369;28;20040;-85
2021/06/26 06:47:43;;;;;;;3.00;2.00;;;19.40;99.90;;;;;;5062904;28;20484;-85
2021/06/26 06:50:10;;;;;;;4.25;1.92;;;19.40;99.90;;;;;;5055576;28;20416;-85
2021/06/26 06:52:37;;;;;;;3.30;1.90;;;19.40;99.90;;;;;;5063256;28;20017;-85
2021/06/26 06:55:07;;;;;;;2.90;2.10;;;19.40;99.90;;;;;;5057121;28;20025;-85
2021/06/26 06:57:33;;;;;;;2.97;1.90;;;19.40;99.90;;;;;;5062895;28;20493;-85
2021/06/26 06:59:59;;;;;;;4.13;2.35;;;19.40;99.90;;;;;;5057748;28;20400;-85
2021/06/26 07:02:25;;;;;;;5.10;2.30;;;19.40;99.90;;;;;;5063267;28;20024;-85
2021/06/26 07:04:51;;;;;;;2.78;1.95;;;19.30;99.90;;;;;;5061540;28;20025;-89
2021/06/26 07:07:17;;;;;;;3.38;1.75;;;19.40;99.90;;;;;;5061374;28;20025;-86
2021/06/26 07:09:43;;;;;;;3.38;2.05;;;19.40;99.90;;;;;;5061804;28;20412;-89
2021/06/26 07:12:09;;;;;;;3.08;1.88;;;19.50;99.90;;;;;;5060216;28;20031;-91
2021/06/26 07:14:35;;;;;;;5.10;2.17;;;19.50;99.90;;;;;;5048946;28;20416;-89
2021/06/26 07:17:01;;;;;;;4.65;2.38;;;19.70;99.90;;;;;;5060457;28;20028;-88
2021/06/26 07:19:27;;;;;;;2.92;1.95;;;19.80;99.90;;;;;;5067953;28;20021;-89
2021/06/26 07:21:53;;;;;;;3.30;1.60;;;19.90;99.90;;;;;;5037124;28;20428;-89
2021/06/26 07:24:19;;;;;;;3.10;1.70;;;20.00;99.90;;;;;;5050466;28;20020;-89
2021/06/26 07:26:45;;;;;;;4.05;2.00;;;20.10;99.90;;;;;;5056988;28;20072;-89
2021/06/26 07:29:11;;;;;;;3.38;1.80;;;20.20;99.90;;;;;;5050894;28;20021;-89
2021/06/26 07:31:37;;;;;;;3.88;2.58;;;20.40;99.90;;;;;;5058627;28;20044;-88
2021/06/26 07:34:03;;;;;;;5.47;2.55;;;20.60;99.90;;;;;;5059960;28;20024;-87
2021/06/26 07:36:29;;;;;;;5.65;2.47;;;20.60;99.90;;;;;;5063596;28;20497;-88
2021/06/26 07:38:55;;;;;;;2.95;2.28;;;20.60;99.90;;;;;;5062552;28;20422;-88
2021/06/26 07:41:22;;;;;;;4.30;2.53;;;20.60;99.90;;;;;;5035994;28;20025;-89
2021/06/26 07:43:48;;;;;;;4.78;2.65;;;20.70;99.90;;;;;;5051346;28;20171;-88
2021/06/26 07:46:15;;;;;;;5.25;2.92;;;20.70;99.90;;;;;;5043815;28;20603;-89
2021/06/26 07:48:41;;;;;;;4.80;3.17;;;20.80;99.90;;;;;;5050955;28;20410;-88
2021/06/26 07:51:07;;;;;;;5.43;3.10;;;20.80;99.90;;;;;;5063028;28;20117;-88
2021/06/26 07:53:33;;;;;;;3.80;2.72;;;20.80;99.90;;;;;;5048759;28;20028;-91
2021/06/26 07:55:58;;;;;;;4.68;2.67;;;20.90;99.90;;;;;;5050696;28;20025;-88
2021/06/26 07:58:26;;;;;;;4.22;3.05;;;21.10;99.90;;;;;;5071645;28;20640;-88
2021/06/26 08:00:54;;;;;;;4.63;2.50;;;21.10;99.90;;;;;;5049383;28;20029;-87
2021/06/26 08:03:20;;;;;;;5.85;2.70;;;21.20;99.90;;;;;;5071467;28;20052;-89
2021/06/26 08:05:47;;;;;;;4.00;2.75;;;21.40;99.90;;;;;;5040796;28;20049;-88
2021/06/26 08:08:13;;;;;;;6.07;3.08;;;21.60;99.90;;;;;;5048946;28;20611;-86
2021/06/26 08:10:39;;;;;;;3.88;3.25;;;21.70;99.90;;;;;;5060841;28;20032;-88
2021/06/26 08:13:05;;;;;;;5.43;3.20;;;21.70;99.90;;;;;;5070959;28;20016;-86
2021/06/26 08:15:35;;;;;;;3.78;2.78;;;21.70;99.90;;;;;;5062502;28;20070;-84
2021/06/26 08:18:01;;;;;;;5.13;2.80;;;21.90;99.90;;;;;;5051579;28;20023;-87
2021/06/26 08:20:27;;;;;;;4.70;2.72;;;22.00;99.90;;;;;;5063423;28;20112;-88
2021/06/26 08:22:53;;;;;;;6.25;2.92;;;22.20;99.90;;;;;;5067236;28;20544;-87
2021/06/26 08:25:19;;;;;;;5.15;2.90;;;22.20;99.90;;;;;;5065566;28;20507;-89
2021/06/26 08:27:44;;;;;;;7.10;3.25;;;22.10;99.90;;;;;;5066861;28;20036;-89
2021/06/26 08:30:10;;;;;;;6.50;3.05;;;22.00;99.90;;;;;;5067378;28;20029;-88
2021/06/26 08:32:36;;;;;;;5.13;3.10;;;21.90;99.90;;;;;;5066765;28;20028;-88
2021/06/26 08:35:02;;;;;;;4.25;3.10;;;21.90;99.90;;;;;;5054873;28;20025;-88
2021/06/26 08:37:28;;;;;;;4.68;3.38;;;22.00;99.90;;;;;;5061597;28;20127;-91
2021/06/26 08:39:54;;;;;;;5.22;3.10;;;22.00;99.90;;;;;;5071158;28;20115;-89
2021/06/26 08:42:20;;;;;;;5.03;3.25;;;21.80;99.90;;;;;;5060919;28;20495;-89
2021/06/26 08:44:53;;;;;;;4.32;2.80;;;21.80;99.90;;;;;;5072229;28;20024;-88
2021/06/26 08:47:20;;;;;;;4.50;2.83;;;21.70;99.90;;;;;;5069629;28;20091;-89
2021/06/26 08:49:46;;;;;;;3.60;2.90;;;21.70;99.90;;;;;;5067812;28;20051;-89
2021/06/26 08:52:12;;;;;;;5.68;3.38;;;21.80;99.90;;;;;;5078291;28;20027;-89
2021/06/26 08:54:37;;;;;;;6.90;3.40;;;21.80;99.90;;;;;;5076339;28;20121;-89
2021/06/26 08:57:04;;;;;;;8.40;3.40;;;21.80;99.90;;;;;;5086992;28;20027;-88
2021/06/26 08:59:29;;;;;;;5.07;3.65;;;22.10;99.90;;;;;;5082353;28;20020;-88
2021/06/26 09:01:55;;;;;;;5.75;3.13;;;22.20;99.90;;;;;;5080671;28;20438;-84
2021/06/26 09:04:21;;;;;;;4.65;3.13;;;22.30;99.90;;;;;;5092132;28;20052;-84
2021/06/26 09:06:48;;;;;;;4.47;3.30;;;22.40;99.90;;;;;;5084521;28;20495;-84
2021/06/26 09:09:14;;;;;;;5.22;3.63;;;22.40;99.90;;;;;;5083962;28;20354;-88
2021/06/26 09:11:40;;;;;;;5.68;3.70;;;22.30;99.90;;;;;;5082598;28;20069;-89
2021/06/26 09:14:19;;;;;;;6.28;3.90;;;22.30;99.90;;;;;;5089392;28;20044;-91
2021/06/26 09:16:53;;;;;;;4.47;3.40;;;22.30;99.90;;;;;;5084118;28;20024;-88
2021/06/26 09:19:19;;;;;;;6.25;3.70;;;22.40;99.90;;;;;;5080811;28;20032;-89
2021/06/26 09:21:56;;;;;;;5.95;3.35;;;22.60;99.90;;;;;;5085080;28;20016;-89
2021/06/26 09:24:22;;;;;;;4.85;2.95;;;22.90;99.90;;;;;;5081234;28;20028;-88
2021/06/26 09:26:55;;;;;;;4.70;3.25;;;23.20;99.90;;;;;;5086897;28;20050;-91
2021/06/26 09:29:21;;;;;;;4.67;3.50;;;23.40;99.90;;;;;;5080356;28;20086;-88
2021/06/26 09:31:53;;;;;;;6.40;3.95;;;23.60;99.90;;;;;;5088597;28;20499;-89
2021/06/26 09:34:21;;;;;;;7.65;3.97;;;23.70;99.90;;;;;;5079224;28;20013;-89
2021/06/26 09:37:02;;;;;;;5.70;3.90;;;23.60;99.90;;;;;;5077228;28;20034;-88
2021/06/26 09:39:41;;;;;;;9.98;3.95;;;23.40;99.90;;;;;;5078967;28;20029;-88
2021/06/26 09:42:29;;;;;;;6.38;4.15;;;23.40;99.90;;;;;;5081597;28;20022;-89
2021/06/26 09:44:56;;;;;;;7.13;4.15;;;23.20;99.90;;;;;;5086140;28;20399;-91
2021/06/26 09:47:35;;;;;;;4.60;3.35;;;22.80;99.90;;;;;;5090782;28;20030;-89
2021/06/26 09:50:12;;;;;;;5.25;3.53;;;22.90;99.90;;;;;;5066444;28;20570;-89
2021/06/26 09:53:04;;;;;;;7.50;3.80;;;23.10;99.90;;;;;;5062467;28;20038;-88
2021/06/26 09:55:46;;;;;;;4.50;3.20;;;23.50;99.90;;;;;;5050668;28;20040;-88
2021/06/26 09:58:15;;;;;;;5.70;3.17;;;23.80;99.90;;;;;;5044035;28;20029;-89
2021/06/26 10:00:42;;;;;;;6.03;3.75;;;24.40;99.90;;;;;;5070213;28;20032;-88
2021/06/26 10:03:09;;;;;;;4.93;3.35;;;24.60;99.90;;;;;;5069732;28;20078;-88
2021/06/26 10:05:35;;;;;;;6.95;3.22;;;24.60;99.90;;;;;;5048503;28;20017;-89
2021/06/26 10:08:03;;;;;;;6.55;3.05;;;24.70;99.10;;;;;;5064024;28;20052;-84
2021/06/26 10:10:30;;;;;;;7.05;3.08;;;24.60;98.50;;;;;;5062065;28;20040;-84
2021/06/26 10:12:56;;;;;;;5.25;3.20;;;24.10;96.50;;;;;;5070106;28;20420;-85
2021/06/26 10:15:25;;;;;;;6.25;3.10;;;23.60;97.10;;;;;;5052384;28;20025;-84
2021/06/26 10:17:51;;;;;;;4.95;2.78;;;23.60;97.50;;;;;;5070247;28;20070;-85
2021/06/26 10:20:18;;;;;;;5.70;2.88;;;23.90;99.00;;;;;;5063505;28;20024;-83
2021/06/26 10:22:48;;;;;;;7.10;4.03;;;23.80;99.10;;;;;;5064166;28;20023;-84
2021/06/26 10:25:15;;;;;;;5.85;3.45;;;23.50;99.40;;;;;;5070334;28;20460;-84
2021/06/26 10:27:42;;;;;;;6.65;3.75;;;23.10;99.90;;;;;;5046113;28;20028;-84
2021/06/26 10:30:21;;;;;;;7.25;3.90;;;23.00;99.90;;;;;;5053974;28;20037;-84
2021/06/26 10:33:08;;;;;;;7.22;4.82;;;22.70;99.90;;;;;;5069803;28;20025;-84
2021/06/26 10:35:38;;;;;;;9.70;6.05;;;22.50;99.90;;;;;;5055100;28;20496;-84
2021/06/26 10:38:11;;;;;;;8.25;5.90;;;22.50;99.90;;;;;;5069540;28;20407;-84
2021/06/26 10:40:48;;;;;;;10.48;5.43;;;22.60;99.90;;;;;;5065749;28;20413;-83
2021/06/26 10:43:23;;;;;;;8.90;5.93;;;22.50;99.90;;;;;;5069313;28;20608;-76
2021/06/26 10:45:52;;;;;;;8.35;5.88;;;22.40;99.90;;;;;;5069494;28;20034;-76
2021/06/26 10:48:24;;;;;;;8.63;5.90;;;22.20;99.90;;;;;;5057175;28;20016;-76
2021/06/26 10:50:55;;;;;;;8.80;5.47;;;22.10;99.90;;;;;;5051414;28;20492;-76
2021/06/26 10:53:28;;;;;;;7.90;6.07;;;22.60;99.90;;;;;;5057924;28;20023;-77
2021/06/26 10:56:14;;;;;;;8.95;5.38;;;22.60;99.90;;;;;;5053309;28;20070;-77
2021/06/26 10:58:46;;;;;;;7.05;5.22;;;22.70;99.90;;;;;;5061635;28;20040;-77
2021/06/26 11:01:23;;;;;;;6.82;5.28;;;22.80;99.90;;;;;;5054995;28;20024;-76
2021/06/26 11:04:10;;;;;;;7.10;5.40;;;22.80;99.90;;;;;;5065448;28;20637;-77
2021/06/26 11:06:37;;;;;;;8.10;6.10;;;23.00;99.90;;;;;;5067391;28;20103;-77
2021/06/26 11:09:06;;;;;;;9.07;5.57;;;23.10;99.90;;;;;;5063819;28;20039;-76
2021/06/26 11:11:48;;;;;;;7.75;3.95;;;23.00;99.90;;;;;;5054941;28;20032;-76
2021/06/26 11:14:19;;;;;;;8.40;5.00;;;23.20;99.90;;;;;;5064123;28;20016;-77
2021/06/26 11:16:57;;;;;;;7.53;4.50;;;23.20;99.90;;;;;;5061325;28;20135;-77
2021/06/26 11:19:29;;;;;;;7.25;4.30;;;23.20;99.90;;;;;;5050217;28;20029;-76
2021/06/26 11:21:55;;;;;;;6.28;4.32;;;22.70;99.90;;;;;;5057376;28;20020;-77
2021/06/26 11:24:51;;;;;;;7.88;5.07;;;22.80;99.90;;;;;;5069424;28;20017;-77
2021/06/26 11:27:20;;;;;;;9.07;3.97;;;22.20;99.90;;;;;;5041424;28;20068;-77
2021/06/26 11:29:49;;;;;;;6.43;4.55;;;22.30;99.90;;;;;;5067423;28;20017;-76
2021/06/26 11:32:23;;;;;;;7.32;5.10;;;22.60;99.90;;;;;;5042913;28;20023;-77
2021/06/26 11:35:09;;;;;;;7.45;4.97;;;22.40;99.90;;;;;;5057798;28;20393;-76
2021/06/26 11:37:47;;;;;;;5.35;3.90;;;22.50;99.90;;;;;;5067017;28;20017;-76
2021/06/26 11:40:22;;;;;;;10.68;3.50;;;22.70;99.80;;;;;;5069752;28;20401;-76
2021/06/26 11:42:53;;;;;;;6.10;4.20;;;23.30;98.70;;;;;;5068568;28;20043;-77
2021/06/26 11:45:25;;;;;;;5.32;3.15;;;23.60;97.80;;;;;;5069315;28;20389;-76
2021/06/26 11:48:06;;;;;;;4.90;3.92;;;23.70;97.60;;;;;;5068813;28;20104;-77
2021/06/26 11:50:33;;;;;;;6.45;3.72;;;23.60;98.30;;;;;;5056901;28;20516;-77
2021/06/26 11:53:05;;;;;;;5.57;3.30;;;23.80;97.40;;;;;;5067193;28;20016;-77
2021/06/26 11:55:36;;;;;;;5.50;3.42;;;23.70;96.20;;;;;;5037523;28;20126;-77
2021/06/26 11:58:01;;;;;;;4.80;2.90;;;23.80;95.60;;;;;;5073798;28;20020;-77
2021/06/26 12:00:27;;;;;;;3.75;3.00;;;24.00;95.90;;;;;;5058440;28;20025;-77
2021/06/26 12:02:53;;;;;;;3.97;2.83;;;24.20;95.70;;;;;;5064954;28;20028;-77
2021/06/26 12:05:20;;;;;;;3.88;2.75;;;24.30;94.50;;;;;;5058548;28;20059;-76
2021/06/26 12:07:46;;;;;;;6.53;3.22;;;24.40;95.60;;;;;;5062503;28;20025;-76
2021/06/26 12:10:12;;;;;;;3.60;2.90;;;24.60;94.70;;;;;;5059668;28;20047;-77
2021/06/26 12:12:40;;;;;;;3.40;2.75;;;24.90;93.90;;;;;;5063676;28;20029;-78
2021/06/26 12:15:08;;;;;;;5.97;3.30;;;24.50;94.10;;;;;;5060234;28;20091;-77
2021/06/26 12:17:34;;;;;;;5.95;3.45;;;24.20;95.20;;;;;;5064016;28;20032;-77
2021/06/26 12:20:04;;;;;;;4.20;3.20;;;24.10;95.40;;;;;;5060832;28;20036;-77
2021/06/26 12:22:30;;;;;;;8.98;4.00;;;23.70;96.20;;;;;;5064712;28;20557;-78
2021/06/26 12:25:16;;;;;;;6.53;3.38;;;23.60;95.70;;;;;;5062046;28;20025;-78
2021/06/26 12:27:42;;;;;;;4.13;3.40;;;24.00;96.50;;;;;;5066998;28;20217;-77
2021/06/26 12:30:15;;;;;;;6.32;3.30;;;24.40;95.20;;;;;;5065758;28;20413;-77
2021/06/26 12:32:41;;;;;;;6.30;3.30;;;24.40;94.90;;;;;;5066915;28;20106;-77
2021/06/26 12:35:10;;;;;;;5.22;3.35;;;24.70;93.10;;;;;;5066259;28;20025;-77
2021/06/26 12:37:44;;;;;;;5.13;3.00;;;24.80;93.40;;;;;;5066074;28;20479;-78
2021/06/26 12:40:17;;;;;;;6.60;3.97;;;24.80;93.10;;;;;;5064893;28;20416;-77
2021/06/26 12:43:13;;;;;;;5.53;3.40;;;24.70;91.30;;;;;;5066631;28;20021;-77
2021/06/26 12:45:43;;;;;;;4.95;3.35;;;24.60;92.30;;;;;;5034314;28;20393;-77
2021/06/26 12:48:16;;;;;;;5.13;3.20;;;24.60;92.60;;;;;;5069651;28;20024;-78